Time;durP1;ratioP1;P1;durP2;ratioP2;P2;SDS_P1;SDS_P2;PMS_P1;PMS_P2;Temp;Humidity;BMP_temperature;BMP_pressure;BME280_temperature;BME280_humidity;BME280_pressure;Samples;Min_cycle;Max_cycle;Signal;HPM_P1;HPM_P2
2024/03/17 00:01:01;;;;;;;5.15;4.28;;;15.80;55.30;;;;;;5053529;28;20210;-62
2024/03/17 00:03:27;;;;;;;5.60;5.07;;;15.80;55.30;;;;;;5053323;28;20516;-62
2024/03/17 00:05:57;;;;;;;4.57;4.18;;;15.80;55.30;;;;;;5053088;28;20563;-61
2024/03/17 00:08:23;;;;;;;5.03;4.32;;;15.80;55.20;;;;;;5053407;28;20186;-62
2024/03/17 00:10:51;;;;;;;4.32;3.67;;;15.80;55.30;;;;;;5053743;28;20179;-61
2024/03/17 00:13:16;;;;;;;4.40;4.00;;;15.80;55.30;;;;;;5052837;28;20203;-61
2024/03/17 00:15:42;;;;;;;4.28;3.97;;;15.80;55.30;;;;;;5053456;28;20211;-61
2024/03/17 00:18:08;;;;;;;4.18;3.78;;;15.80;55.20;;;;;;5052671;28;20683;-62
2024/03/17 00:20:34;;;;;;;4.30;3.90;;;15.70;55.20;;;;;;5053500;28;20215;-62
2024/03/17 00:22:59;;;;;;;4.18;3.88;;;15.70;55.20;;;;;;5053392;28;20221;-62
2024/03/17 00:25:25;;;;;;;4.03;3.60;;;15.80;55.30;;;;;;5052398;28;20178;-62
2024/03/17 00:27:55;;;;;;;4.28;3.88;;;15.70;55.20;;;;;;5053118;28;20168;-62
2024/03/17 00:30:21;;;;;;;4.35;3.95;;;15.80;55.20;;;;;;5052770;28;20183;-61
2024/03/17 00:32:46;;;;;;;4.05;3.58;;;15.70;55.10;;;;;;5052673;28;20246;-62
2024/03/17 00:35:14;;;;;;;4.32;3.38;;;15.70;55.10;;;;;;5052789;28;20702;-62
2024/03/17 00:37:39;;;;;;;3.90;3.38;;;15.70;55.10;;;;;;5053140;28;20179;-62
2024/03/17 00:40:07;;;;;;;4.18;3.60;;;15.70;55.10;;;;;;5051971;28;20284;-62
2024/03/17 00:42:33;;;;;;;3.58;3.28;;;15.70;55.20;;;;;;5052779;28;20171;-62
2024/03/17 00:44:59;;;;;;;3.53;3.10;;;15.70;55.10;;;;;;5052748;28;20179;-61
2024/03/17 00:47:25;;;;;;;3.25;3.00;;;15.70;55.10;;;;;;5052052;28;20185;-62
2024/03/17 00:49:51;;;;;;;4.07;3.53;;;15.70;55.10;;;;;;5052800;28;20179;-61
2024/03/17 00:52:17;;;;;;;3.63;3.17;;;15.70;55.30;;;;;;5051760;28;20266;-62
2024/03/17 00:54:42;;;;;;;5.20;3.53;;;15.60;55.10;;;;;;5051938;28;20286;-61
2024/03/17 00:57:08;;;;;;;3.88;3.20;;;15.70;55.20;;;;;;5052405;28;20190;-62
2024/03/17 00:59:33;;;;;;;3.03;2.75;;;15.70;55.70;;;;;;5052399;28;20182;-61
2024/03/17 01:01:59;;;;;;;4.30;3.08;;;15.60;55.10;;;;;;5051623;28;20222;-62
2024/03/17 01:04:24;;;;;;;3.33;3.05;;;15.60;55.10;;;;;;5052226;28;20171;-62
2024/03/17 01:06:50;;;;;;;3.97;3.17;;;15.60;55.20;;;;;;5052419;28;20174;-61
2024/03/17 01:09:15;;;;;;;3.22;2.92;;;15.60;55.10;;;;;;5051415;28;20263;-62
2024/03/17 01:11:41;;;;;;;3.60;3.30;;;15.60;55.10;;;;;;5052408;28;20262;-61
2024/03/17 01:14:07;;;;;;;3.28;2.80;;;15.60;55.00;;;;;;5052259;28;20210;-61
2024/03/17 01:16:33;;;;;;;3.42;2.90;;;15.60;55.00;;;;;;5051449;28;20183;-61
2024/03/17 01:18:58;;;;;;;3.72;3.10;;;15.60;55.10;;;;;;5052147;28;20228;-61
2024/03/17 01:21:24;;;;;;;3.42;3.13;;;15.60;55.00;;;;;;5051252;28;20301;-61
2024/03/17 01:23:50;;;;;;;3.10;2.60;;;15.50;55.00;;;;;;5052306;28;20678;-61
2024/03/17 01:26:15;;;;;;;2.90;2.70;;;15.60;55.10;;;;;;5051814;28;20181;-62
2024/03/17 01:28:41;;;;;;;3.90;3.20;;;15.50;55.00;;;;;;5051686;28;20262;-61
2024/03/17 01:31:07;;;;;;;3.05;2.58;;;15.50;55.10;;;;;;5052226;28;20699;-61
2024/03/17 01:33:32;;;;;;;3.20;2.78;;;15.50;55.00;;;;;;5051709;28;20698;-61
2024/03/17 01:35:58;;;;;;;3.35;2.80;;;15.50;55.00;;;;;;5051186;28;20232;-62
2024/03/17 01:38:23;;;;;;;4.43;3.17;;;15.50;55.10;;;;;;5051604;28;20170;-62
2024/03/17 01:40:49;;;;;;;4.18;2.78;;;15.50;55.10;;;;;;5051662;28;20366;-61
2024/03/17 01:43:14;;;;;;;4.85;3.05;;;15.60;55.10;;;;;;5050661;28;20182;-62
2024/03/17 01:45:40;;;;;;;3.47;2.90;;;15.50;55.10;;;;;;5052051;28;20175;-61
2024/03/17 01:48:19;;;;;;;3.08;2.72;;;15.50;55.00;;;;;;5051746;28;20622;-62
2024/03/17 01:50:44;;;;;;;4.07;2.67;;;15.50;55.00;;;;;;5050782;28;20183;-61
2024/03/17 01:53:10;;;;;;;4.38;3.15;;;15.40;55.00;;;;;;5050235;28;20211;-61
2024/03/17 01:55:37;;;;;;;3.47;2.45;;;15.50;55.00;;;;;;5051658;28;20645;-61
2024/03/17 01:58:03;;;;;;;2.90;2.58;;;15.50;55.00;;;;;;5050060;28;20175;-62
2024/03/17 02:00:31;;;;;;;3.10;2.80;;;15.50;55.10;;;;;;5051572;28;20211;-61
2024/03/17 02:02:56;;;;;;;2.67;2.30;;;15.50;55.10;;;;;;5054740;28;20178;-62
2024/03/17 02:05:22;;;;;;;4.10;2.92;;;15.50;55.10;;;;;;5057396;28;20183;-62
2024/03/17 02:07:48;;;;;;;4.68;2.35;;;15.40;55.00;;;;;;5058400;28;20538;-62
2024/03/17 02:10:14;;;;;;;2.45;2.20;;;15.40;55.00;;;;;;5057774;28;20174;-61
2024/03/17 02:12:40;;;;;;;3.25;2.72;;;15.50;55.10;;;;;;5057850;28;20182;-61
2024/03/17 02:15:06;;;;;;;3.47;3.00;;;15.40;55.10;;;;;;5058255;28;20187;-61
2024/03/17 02:17:32;;;;;;;3.17;2.50;;;15.40;55.00;;;;;;5056008;28;20186;-61
2024/03/17 02:19:58;;;;;;;4.15;2.70;;;15.40;55.10;;;;;;5058141;28;20175;-61
2024/03/17 02:22:24;;;;;;;2.95;2.38;;;15.40;55.10;;;;;;5057905;28;20174;-62
2024/03/17 02:24:49;;;;;;;3.33;2.50;;;15.40;55.10;;;;;;5057451;28;20793;-61
2024/03/17 02:27:15;;;;;;;3.10;2.78;;;15.40;55.10;;;;;;5057641;28;20695;-61
2024/03/17 02:29:40;;;;;;;3.83;2.67;;;15.40;55.00;;;;;;5058038;28;20163;-62
2024/03/17 02:32:07;;;;;;;4.03;2.38;;;15.40;55.00;;;;;;5057503;28;20183;-62
2024/03/17 02:34:36;;;;;;;3.38;2.63;;;15.40;55.10;;;;;;5058094;28;20604;-62
2024/03/17 02:37:03;;;;;;;3.42;2.65;;;15.40;55.00;;;;;;5058046;28;20233;-63
2024/03/17 02:39:35;;;;;;;3.75;2.50;;;15.40;55.10;;;;;;5056860;28;20216;-63
2024/03/17 02:42:07;;;;;;;3.00;2.70;;;15.40;55.10;;;;;;5056936;28;20242;-62
2024/03/17 02:44:33;;;;;;;3.50;2.50;;;15.30;55.70;;;;;;5057722;28;20559;-62
2024/03/17 02:46:59;;;;;;;2.83;2.42;;;15.30;55.10;;;;;;5057144;28;20659;-62
2024/03/17 02:49:26;;;;;;;3.88;2.50;;;15.30;55.10;;;;;;5057742;28;20208;-62
2024/03/17 02:51:55;;;;;;;3.22;2.40;;;15.30;55.10;;;;;;5057858;28;20244;-63
2024/03/17 02:54:23;;;;;;;2.90;2.45;;;15.30;55.00;;;;;;5057126;28;20178;-62
2024/03/17 02:56:50;;;;;;;2.90;2.47;;;15.30;55.10;;;;;;5057929;28;20183;-62
2024/03/17 02:59:15;;;;;;;2.88;2.35;;;15.30;55.10;;;;;;5057603;28;20183;-62
2024/03/17 03:01:41;;;;;;;3.03;2.55;;;15.30;55.10;;;;;;5057106;28;20214;-62
2024/03/17 03:04:06;;;;;;;4.18;2.65;;;15.30;55.10;;;;;;5057716;28;20178;-62
2024/03/17 03:06:33;;;;;;;2.60;2.40;;;15.30;55.10;;;;;;5057444;28;20170;-62
2024/03/17 03:08:58;;;;;;;4.10;2.78;;;15.30;55.10;;;;;;5057226;28;20171;-62
2024/03/17 03:11:24;;;;;;;2.65;2.40;;;15.30;55.20;;;;;;5057413;28;20220;-62
2024/03/17 03:13:49;;;;;;;3.03;2.15;;;15.30;55.20;;;;;;5055610;28;20175;-62
2024/03/17 03:16:15;;;;;;;3.22;2.40;;;15.30;55.20;;;;;;5054177;28;20178;-62
2024/03/17 03:18:41;;;;;;;2.67;2.40;;;15.30;55.20;;;;;;5054681;28;20168;-62
2024/03/17 03:21:07;;;;;;;3.17;2.33;;;15.30;55.30;;;;;;5053692;28;20424;-62
2024/03/17 03:23:32;;;;;;;3.97;2.40;;;15.30;55.90;;;;;;5054461;28;20691;-62
2024/03/17 03:25:58;;;;;;;2.97;2.38;;;15.30;55.30;;;;;;5054528;28;20182;-62
2024/03/17 03:28:24;;;;;;;3.15;2.80;;;15.30;55.30;;;;;;5053502;28;20265;-62
2024/03/17 03:30:51;;;;;;;3.75;2.45;;;15.20;55.20;;;;;;5054310;28;20218;-61
2024/03/17 03:33:17;;;;;;;4.05;2.60;;;15.50;55.40;;;;;;5054114;28;20179;-62
2024/03/17 03:35:43;;;;;;;3.40;2.88;;;15.20;55.20;;;;;;5053556;28;20200;-62
2024/03/17 03:38:09;;;;;;;3.17;2.70;;;15.20;55.30;;;;;;5054157;28;20175;-63
2024/03/17 03:40:34;;;;;;;2.90;2.47;;;15.20;55.30;;;;;;5054021;28;20234;-62
2024/03/17 03:43:00;;;;;;;3.28;2.80;;;15.20;55.30;;;;;;5053351;28;20291;-62
2024/03/17 03:45:25;;;;;;;4.47;2.85;;;15.20;55.30;;;;;;5053830;28;20300;-63
2024/03/17 03:47:51;;;;;;;3.97;2.53;;;15.20;55.30;;;;;;5053912;28;20277;-62
2024/03/17 03:50:21;;;;;;;4.57;2.63;;;15.20;55.40;;;;;;5052801;28;20469;-62
2024/03/17 03:52:47;;;;;;;2.60;2.33;;;15.20;55.40;;;;;;5053932;28;20629;-62
2024/03/17 03:55:15;;;;;;;2.95;2.55;;;15.20;55.40;;;;;;5053412;28;20197;-62
2024/03/17 03:57:47;;;;;;;3.45;2.63;;;15.20;55.50;;;;;;5053300;28;20187;-62
2024/03/17 04:00:14;;;;;;;2.40;2.28;;;15.20;55.50;;;;;;5053324;28;20211;-62
2024/03/17 04:02:40;;;;;;;3.83;3.03;;;15.10;55.40;;;;;;5053702;28;20183;-62
2024/03/17 04:05:05;;;;;;;2.47;2.28;;;15.20;55.50;;;;;;5052877;28;20183;-62
2024/03/17 04:07:31;;;;;;;3.55;2.88;;;15.20;55.50;;;;;;5053514;28;20188;-63
2024/03/17 04:09:57;;;;;;;2.75;2.53;;;15.10;55.50;;;;;;5053609;28;20186;-62
2024/03/17 04:12:24;;;;;;;2.60;2.30;;;15.20;55.50;;;;;;5052706;28;20543;-62
2024/03/17 04:14:53;;;;;;;5.28;3.05;;;15.20;55.70;;;;;;5053554;28;20203;-62
2024/03/17 04:17:21;;;;;;;2.90;2.60;;;15.10;55.50;;;;;;5052397;28;20183;-62
2024/03/17 04:19:50;;;;;;;3.88;2.72;;;15.10;55.60;;;;;;5053526;28;20167;-62
2024/03/17 04:22:16;;;;;;;2.78;2.58;;;15.10;55.70;;;;;;5053181;28;20238;-63
2024/03/17 04:24:43;;;;;;;3.90;2.35;;;15.10;55.70;;;;;;5052733;28;20625;-61
2024/03/17 04:27:09;;;;;;;3.03;2.80;;;15.10;55.80;;;;;;5051783;28;20179;-62
2024/03/17 04:29:34;;;;;;;3.47;2.55;;;15.10;55.70;;;;;;5053285;28;20182;-62
2024/03/17 04:32:00;;;;;;;3.03;2.72;;;15.10;55.80;;;;;;5052355;28;20680;-63
2024/03/17 04:34:27;;;;;;;3.30;2.80;;;15.10;55.80;;;;;;5053040;28;20171;-62
2024/03/17 04:36:53;;;;;;;3.75;3.08;;;15.10;55.80;;;;;;5053123;28;20207;-63
2024/03/17 04:39:22;;;;;;;3.05;2.83;;;15.10;55.90;;;;;;5052006;28;20178;-64
2024/03/17 04:41:47;;;;;;;3.15;2.85;;;15.10;55.80;;;;;;5052931;28;20222;-64
2024/03/17 04:44:13;;;;;;;4.25;2.65;;;15.10;55.90;;;;;;5052490;28;20265;-62
2024/03/17 04:46:39;;;;;;;2.67;2.40;;;15.10;55.90;;;;;;5052173;28;20198;-63
2024/03/17 04:49:04;;;;;;;3.38;2.78;;;15.10;55.80;;;;;;5052761;28;20175;-62
2024/03/17 04:51:30;;;;;;;3.30;2.97;;;15.10;55.90;;;;;;5052391;28;20175;-63
2024/03/17 04:53:55;;;;;;;3.97;2.92;;;15.10;55.90;;;;;;5052078;28;20167;-64
2024/03/17 04:56:21;;;;;;;4.07;3.20;;;15.10;55.90;;;;;;5052522;28;20717;-63
2024/03/17 04:58:46;;;;;;;2.72;2.50;;;15.10;56.00;;;;;;5052719;28;20657;-62
2024/03/17 05:01:12;;;;;;;3.45;3.15;;;15.10;55.90;;;;;;5051432;28;20875;-63
2024/03/17 05:03:38;;;;;;;3.55;3.05;;;15.10;56.00;;;;;;5052538;28;20540;-63
2024/03/17 05:06:04;;;;;;;2.70;2.15;;;15.00;56.00;;;;;;5052616;28;20210;-63
2024/03/17 05:08:30;;;;;;;2.90;2.70;;;15.10;56.00;;;;;;5051585;28;20171;-63
2024/03/17 05:10:59;;;;;;;2.97;2.67;;;15.10;56.00;;;;;;5052349;28;20171;-62
2024/03/17 05:13:26;;;;;;;2.92;2.72;;;15.10;56.10;;;;;;5051458;28;20180;-63
2024/03/17 05:15:52;;;;;;;3.47;2.78;;;15.00;56.10;;;;;;5052245;28;20183;-62
2024/03/17 05:18:17;;;;;;;3.75;3.45;;;15.00;56.10;;;;;;5052228;28;20594;-63
2024/03/17 05:20:43;;;;;;;3.28;2.97;;;15.00;56.20;;;;;;5051709;28;20230;-62
2024/03/17 05:23:08;;;;;;;3.72;3.20;;;15.00;56.10;;;;;;5051750;28;20701;-62
2024/03/17 05:25:36;;;;;;;3.78;3.45;;;15.00;56.10;;;;;;5052158;28;20178;-62
2024/03/17 05:28:02;;;;;;;3.63;3.15;;;15.00;56.20;;;;;;5051430;28;20179;-62
2024/03/17 05:30:28;;;;;;;4.05;3.17;;;15.00;56.20;;;;;;5051758;28;20175;-62
2024/03/17 05:32:54;;;;;;;4.25;3.10;;;15.00;56.80;;;;;;5052222;28;20703;-62
2024/03/17 05:35:19;;;;;;;3.10;2.80;;;15.00;56.30;;;;;;5051103;28;20175;-63
2024/03/17 05:37:45;;;;;;;4.60;2.92;;;15.00;56.20;;;;;;5051720;28;20177;-63
2024/03/17 05:40:14;;;;;;;4.22;3.60;;;15.00;56.30;;;;;;5051361;28;20314;-62
2024/03/17 05:42:43;;;;;;;3.75;2.92;;;15.00;56.20;;;;;;5051180;28;20574;-63
2024/03/17 05:45:10;;;;;;;3.40;3.10;;;15.00;56.40;;;;;;5051809;28;20191;-62
2024/03/17 05:47:37;;;;;;;5.57;3.60;;;15.00;56.30;;;;;;5051911;28;20182;-63
2024/03/17 05:50:03;;;;;;;3.97;3.53;;;15.00;56.60;;;;;;5051174;28;20225;-62
2024/03/17 05:52:29;;;;;;;3.38;2.88;;;15.00;56.40;;;;;;5051655;28;20233;-63
2024/03/17 05:54:55;;;;;;;3.42;3.03;;;15.00;56.40;;;;;;5051796;28;20175;-62
2024/03/17 05:57:24;;;;;;;3.20;2.90;;;15.10;56.50;;;;;;5050931;28;20248;-63
2024/03/17 05:59:49;;;;;;;3.00;2.70;;;15.20;56.30;;;;;;5052038;28;20186;-62
2024/03/17 06:02:15;;;;;;;3.38;2.85;;;15.20;56.30;;;;;;5051520;28;20218;-63
2024/03/17 06:04:41;;;;;;;3.33;2.80;;;15.30;56.40;;;;;;5051140;28;20167;-62
2024/03/17 06:07:07;;;;;;;3.10;2.80;;;15.40;56.40;;;;;;5051507;28;20423;-63
2024/03/17 06:09:32;;;;;;;3.08;2.78;;;15.50;56.30;;;;;;5051286;28;20175;-62
2024/03/17 06:11:58;;;;;;;2.70;2.47;;;15.50;56.20;;;;;;5050810;28;20171;-62
2024/03/17 06:14:23;;;;;;;3.45;2.67;;;15.60;56.10;;;;;;5051564;28;20171;-62
2024/03/17 06:16:49;;;;;;;3.33;2.47;;;15.70;56.20;;;;;;5051073;28;20186;-62
2024/03/17 06:19:14;;;;;;;3.13;2.70;;;15.70;56.00;;;;;;5051247;28;20535;-62
2024/03/17 06:21:41;;;;;;;3.40;2.72;;;15.80;56.00;;;;;;5051522;28;20206;-63
2024/03/17 06:24:06;;;;;;;3.78;2.70;;;15.80;55.80;;;;;;5050677;28;20179;-63
2024/03/17 06:26:34;;;;;;;3.05;2.85;;;15.90;55.80;;;;;;5051163;28;20186;-62
2024/03/17 06:29:00;;;;;;;2.97;2.67;;;16.00;55.70;;;;;;5051632;28;20176;-62
2024/03/17 06:31:25;;;;;;;3.20;2.75;;;16.00;55.70;;;;;;5050628;28;20182;-62
2024/03/17 06:33:51;;;;;;;2.78;2.55;;;16.10;55.60;;;;;;5051501;28;20168;-63
2024/03/17 06:36:17;;;;;;;3.00;2.70;;;16.10;55.60;;;;;;5051106;28;20179;-64
2024/03/17 06:38:43;;;;;;;2.50;2.30;;;16.10;55.50;;;;;;5050806;28;20190;-63
2024/03/17 06:41:10;;;;;;;3.15;2.85;;;16.20;55.40;;;;;;5050636;28;20231;-63
2024/03/17 06:43:35;;;;;;;2.72;2.53;;;16.30;55.30;;;;;;5051361;28;20629;-64
2024/03/17 06:46:01;;;;;;;2.75;2.55;;;16.30;55.30;;;;;;5050660;28;20183;-63
2024/03/17 06:48:27;;;;;;;4.28;2.78;;;16.30;55.30;;;;;;5051076;28;20630;-63
2024/03/17 06:50:54;;;;;;;2.92;2.45;;;16.40;55.30;;;;;;5054356;28;20182;-61
2024/03/17 06:53:22;;;;;;;2.97;2.60;;;16.40;55.20;;;;;;5054174;28;20266;-62
2024/03/17 06:55:58;;;;;;;2.53;2.33;;;16.60;55.10;;;;;;5054974;28;20179;-62
2024/03/17 06:58:26;;;;;;;2.97;2.67;;;16.80;55.00;;;;;;5054648;28;20633;-61
2024/03/17 07:00:56;;;;;;;3.45;2.60;;;16.90;54.80;;;;;;5054229;28;20298;-62
2024/03/17 07:03:24;;;;;;;2.95;2.33;;;17.10;54.60;;;;;;5054511;28;20175;-62
2024/03/17 07:05:53;;;;;;;3.60;2.30;;;17.20;54.40;;;;;;5054526;28;20210;-62
2024/03/17 07:08:20;;;;;;;2.50;2.10;;;17.40;54.20;;;;;;5054406;28;20175;-62
2024/03/17 07:11:05;;;;;;;2.50;2.30;;;17.50;53.90;;;;;;5054862;28;20356;-61
2024/03/17 07:13:32;;;;;;;3.83;2.70;;;17.50;53.80;;;;;;5053817;28;20186;-63
2024/03/17 07:15:58;;;;;;;3.33;2.50;;;17.60;53.80;;;;;;5054470;28;20187;-63
2024/03/17 07:18:27;;;;;;;3.10;2.40;;;17.50;53.70;;;;;;5054329;28;20175;-61
2024/03/17 07:20:57;;;;;;;2.92;2.38;;;17.60;53.60;;;;;;5053888;28;20221;-63
2024/03/17 07:23:22;;;;;;;2.92;2.40;;;17.60;53.60;;;;;;5054392;28;20171;-62
2024/03/17 07:25:53;;;;;;;2.33;2.13;;;17.60;53.70;;;;;;5054592;28;20612;-62
2024/03/17 07:28:18;;;;;;;3.17;2.20;;;17.70;53.70;;;;;;5053561;28;20191;-63
2024/03/17 07:30:51;;;;;;;4.13;2.78;;;17.70;53.70;;;;;;5054401;28;20265;-61
2024/03/17 07:33:17;;;;;;;2.60;2.40;;;17.60;53.80;;;;;;5053964;28;20179;-62
2024/03/17 07:35:56;;;;;;;2.88;2.40;;;17.60;53.80;;;;;;5053800;28;20190;-63
2024/03/17 07:38:22;;;;;;;2.20;2.00;;;17.50;53.90;;;;;;5053990;28;20274;-62
2024/03/17 07:41:01;;;;;;;2.38;2.17;;;17.40;54.10;;;;;;5053879;28;20638;-62
2024/03/17 07:43:27;;;;;;;2.97;2.33;;;17.40;54.10;;;;;;5053915;28;20842;-62
2024/03/17 07:46:00;;;;;;;2.53;2.28;;;17.40;54.20;;;;;;5053954;28;20546;-63
2024/03/17 07:48:25;;;;;;;4.07;2.33;;;17.40;54.30;;;;;;5053311;28;20278;-63
2024/03/17 07:50:56;;;;;;;2.63;2.42;;;17.40;54.30;;;;;;5054005;28;20270;-62
2024/03/17 07:53:21;;;;;;;2.78;2.33;;;17.40;54.30;;;;;;5053714;28;20179;-63
2024/03/17 07:55:47;;;;;;;2.33;2.13;;;17.40;54.30;;;;;;5053111;28;20666;-62
2024/03/17 07:58:12;;;;;;;2.60;2.40;;;17.40;54.30;;;;;;5053344;28;20177;-63
2024/03/17 08:00:38;;;;;;;2.13;1.95;;;17.60;54.30;;;;;;5053663;28;20215;-62
2024/03/17 08:03:04;;;;;;;3.42;2.80;;;17.60;54.10;;;;;;5053113;28;20648;-62
2024/03/17 08:05:30;;;;;;;2.85;2.20;;;17.60;54.10;;;;;;5053554;28;20182;-63
2024/03/17 08:07:55;;;;;;;2.92;2.30;;;17.60;54.00;;;;;;5053673;28;20515;-63
2024/03/17 08:10:21;;;;;;;2.50;2.30;;;17.70;54.00;;;;;;5052755;28;20597;-62
2024/03/17 08:12:47;;;;;;;2.15;1.98;;;17.70;54.00;;;;;;5053429;28;20217;-63
2024/03/17 08:15:13;;;;;;;2.72;2.13;;;17.70;54.00;;;;;;5053370;28;20175;-62
2024/03/17 08:17:39;;;;;;;2.15;1.95;;;17.70;54.00;;;;;;5052967;28;20210;-62
2024/03/17 08:20:05;;;;;;;2.67;2.08;;;17.70;54.10;;;;;;5053407;28;20202;-62
2024/03/17 08:22:31;;;;;;;2.28;2.17;;;17.70;54.00;;;;;;5053232;28;20179;-62
2024/03/17 08:24:56;;;;;;;2.35;2.15;;;17.70;54.00;;;;;;5052528;28;20174;-62
2024/03/17 08:27:22;;;;;;;1.90;1.80;;;17.60;54.10;;;;;;5052945;28;20171;-62
2024/03/17 08:29:48;;;;;;;2.28;2.08;;;17.60;54.20;;;;;;5053178;28;20171;-62
2024/03/17 08:32:14;;;;;;;2.55;1.90;;;17.60;54.40;;;;;;5052044;28;20207;-63
2024/03/17 08:34:40;;;;;;;2.50;2.30;;;17.50;54.40;;;;;;5053260;28;20182;-62
2024/03/17 08:37:05;;;;;;;2.08;1.85;;;17.50;54.50;;;;;;5053117;28;20649;-63
2024/03/17 08:39:31;;;;;;;2.10;2.00;;;17.40;54.60;;;;;;5051900;28;20222;-63
2024/03/17 08:41:56;;;;;;;2.28;1.75;;;17.30;54.70;;;;;;5052818;28;20685;-63
2024/03/17 08:44:22;;;;;;;2.10;1.83;;;17.30;54.90;;;;;;5052091;28;20175;-62
2024/03/17 08:46:47;;;;;;;2.08;1.95;;;17.20;54.90;;;;;;5052763;28;20668;-62
2024/03/17 08:49:13;;;;;;;2.20;2.00;;;17.20;54.90;;;;;;5052470;28;20256;-62
2024/03/17 08:51:38;;;;;;;2.55;2.13;;;17.20;55.10;;;;;;5052175;28;20285;-62
2024/03/17 08:54:04;;;;;;;1.95;1.85;;;17.10;55.20;;;;;;5052549;28;20167;-63
2024/03/17 08:56:29;;;;;;;3.28;2.10;;;17.10;55.30;;;;;;5052244;28;20190;-63
2024/03/17 08:58:55;;;;;;;2.22;2.03;;;17.00;55.30;;;;;;5051883;28;20175;-63
2024/03/17 09:01:20;;;;;;;2.53;2.33;;;17.00;55.50;;;;;;5052360;28;20210;-63
2024/03/17 09:03:49;;;;;;;2.83;1.92;;;17.00;55.60;;;;;;5052729;28;20538;-63
2024/03/17 09:06:16;;;;;;;2.40;1.85;;;17.00;55.60;;;;;;5051438;28;20630;-63
2024/03/17 09:08:41;;;;;;;2.50;2.13;;;17.00;55.70;;;;;;5052535;28;20250;-63
2024/03/17 09:11:10;;;;;;;1.90;1.80;;;17.00;55.60;;;;;;5052317;28;20605;-62
2024/03/17 09:13:36;;;;;;;2.00;1.90;;;17.00;55.70;;;;;;5033998;28;20178;-62
2024/03/17 09:16:01;;;;;;;1.80;1.70;;;17.00;55.70;;;;;;5052459;28;20175;-62
2024/03/17 09:18:28;;;;;;;2.55;2.30;;;17.00;55.70;;;;;;5052050;28;20175;-62
2024/03/17 09:20:57;;;;;;;1.90;1.80;;;16.90;55.70;;;;;;5051461;28;20565;-62
2024/03/17 09:23:24;;;;;;;1.75;1.65;;;16.90;55.70;;;;;;5051934;28;20171;-62
2024/03/17 09:26:00;;;;;;;2.40;2.00;;;16.90;55.80;;;;;;5052279;28;20191;-62
2024/03/17 09:28:26;;;;;;;2.25;2.05;;;16.90;55.90;;;;;;5051207;28;20629;-62
2024/03/17 09:30:52;;;;;;;2.28;2.10;;;16.80;55.90;;;;;;5052175;28;20198;-61
2024/03/17 09:33:21;;;;;;;1.92;1.77;;;16.90;55.90;;;;;;5051626;28;20552;-62
2024/03/17 09:36:01;;;;;;;1.65;1.55;;;16.90;55.90;;;;;;5051404;28;20260;-62
2024/03/17 09:38:29;;;;;;;2.17;1.92;;;16.90;55.80;;;;;;5051703;28;20679;-63
2024/03/17 09:40:57;;;;;;;1.88;1.70;;;16.90;55.80;;;;;;5050970;28;20925;-62
2024/03/17 09:43:24;;;;;;;1.80;1.70;;;16.90;55.90;;;;;;5051889;28;20555;-62
2024/03/17 09:45:54;;;;;;;1.85;1.70;;;16.80;55.80;;;;;;5052139;28;20179;-62
2024/03/17 09:48:19;;;;;;;1.90;1.70;;;16.80;56.00;;;;;;5050975;28;20170;-62
2024/03/17 09:50:51;;;;;;;2.00;1.80;;;16.80;56.00;;;;;;5051796;28;20258;-61
2024/03/17 09:53:18;;;;;;;2.13;1.90;;;16.80;56.10;;;;;;5051949;28;20175;-63
2024/03/17 09:55:43;;;;;;;2.00;1.90;;;16.70;56.10;;;;;;5050141;28;20171;-61
2024/03/17 09:58:16;;;;;;;2.60;1.90;;;16.70;56.10;;;;;;5051543;28;20189;-62
2024/03/17 10:00:51;;;;;;;2.53;2.17;;;16.70;56.10;;;;;;5051785;28;20268;-61
2024/03/17 10:04:01;;;;;;;2.30;2.10;;;16.70;56.10;;;;;;5050602;28;20177;-62
2024/03/17 10:06:29;;;;;;;2.33;2.00;;;16.80;56.10;;;;;;5051557;28;20182;-63
2024/03/17 10:08:56;;;;;;;2.28;2.08;;;16.80;56.10;;;;;;5050895;28;20186;-62
2024/03/17 10:11:23;;;;;;;3.42;2.00;;;16.70;56.00;;;;;;5051372;28;20659;-62
2024/03/17 10:14:03;;;;;;;2.03;1.70;;;16.80;56.00;;;;;;5051868;28;20186;-62
2024/03/17 10:16:31;;;;;;;2.05;1.83;;;16.80;56.00;;;;;;5050834;28;20495;-62
2024/03/17 10:19:06;;;;;;;2.50;1.75;;;16.80;56.20;;;;;;5051634;28;20261;-62
2024/03/17 10:21:32;;;;;;;1.73;1.63;;;16.80;56.20;;;;;;5051253;28;20229;-62
2024/03/17 10:24:14;;;;;;;2.80;2.17;;;16.70;56.20;;;;;;5052477;28;20183;-61
2024/03/17 10:26:43;;;;;;;2.15;1.55;;;16.70;56.20;;;;;;5055873;28;20228;-62
2024/03/17 10:29:22;;;;;;;1.95;1.60;;;16.70;56.20;;;;;;5055278;28;20584;-61
2024/03/17 10:31:48;;;;;;;2.03;1.80;;;16.70;56.20;;;;;;5054900;28;20288;-62
2024/03/17 10:34:15;;;;;;;1.88;1.73;;;16.70;56.30;;;;;;5055036;28;20633;-62
2024/03/17 10:36:41;;;;;;;2.28;2.08;;;16.70;56.30;;;;;;5055410;28;20233;-63
2024/03/17 10:39:22;;;;;;;2.45;2.05;;;16.70;56.30;;;;;;5054792;28;20167;-62
2024/03/17 10:41:48;;;;;;;1.85;1.70;;;16.70;56.30;;;;;;5054245;28;20223;-63
2024/03/17 10:44:13;;;;;;;2.00;1.80;;;16.70;56.30;;;;;;5053041;28;20812;-62
2024/03/17 10:46:39;;;;;;;2.65;1.98;;;16.70;56.30;;;;;;5055315;28;20186;-62
2024/03/17 10:49:05;;;;;;;1.90;1.80;;;16.70;56.30;;;;;;5053803;28;20171;-62
2024/03/17 10:51:32;;;;;;;2.60;2.03;;;16.70;56.30;;;;;;5036279;28;20213;-63
2024/03/17 10:53:57;;;;;;;2.00;1.80;;;16.70;56.30;;;;;;5053963;28;20194;-63
2024/03/17 10:56:23;;;;;;;1.83;1.73;;;16.70;56.30;;;;;;5053474;28;20704;-62
2024/03/17 10:58:52;;;;;;;3.22;1.80;;;16.70;56.30;;;;;;5053230;28;20171;-63
2024/03/17 11:01:17;;;;;;;2.38;1.90;;;16.70;56.30;;;;;;5053381;28;20210;-63
2024/03/17 11:03:44;;;;;;;2.38;1.70;;;16.70;56.30;;;;;;5053577;28;20163;-63
2024/03/17 11:06:10;;;;;;;2.80;2.03;;;16.70;56.30;;;;;;5052392;28;20262;-63
2024/03/17 11:08:35;;;;;;;2.30;2.15;;;16.70;56.30;;;;;;5053821;28;20254;-63
2024/03/17 11:11:02;;;;;;;2.30;1.90;;;16.70;56.20;;;;;;5053359;28;20206;-62
2024/03/17 11:13:30;;;;;;;2.45;1.92;;;16.70;56.20;;;;;;5053731;28;20179;-62
2024/03/17 11:15:58;;;;;;;1.90;1.80;;;16.70;56.30;;;;;;5054679;28;20182;-62
2024/03/17 11:18:24;;;;;;;1.80;1.70;;;16.70;56.20;;;;;;5054349;28;20175;-62
2024/03/17 11:21:16;;;;;;;2.15;1.98;;;16.70;56.20;;;;;;5053791;28;20203;-62
2024/03/17 11:23:41;;;;;;;2.05;1.88;;;16.70;56.20;;;;;;5054527;28;20642;-62
2024/03/17 11:26:08;;;;;;;2.10;1.90;;;16.70;56.30;;;;;;5053754;28;20270;-62
2024/03/17 11:28:43;;;;;;;3.03;1.95;;;16.70;56.30;;;;;;5054309;28;20646;-62
2024/03/17 11:31:52;;;;;;;1.92;1.83;;;16.70;56.30;;;;;;5054000;28;20793;-62
2024/03/17 11:34:29;;;;;;;2.53;1.90;;;16.70;56.30;;;;;;5053527;28;20259;-63
2024/03/17 11:36:56;;;;;;;1.75;1.65;;;16.70;56.30;;;;;;5053610;28;20179;-63
2024/03/17 11:39:34;;;;;;;1.92;1.77;;;16.60;56.30;;;;;;5053926;28;20200;-64
2024/03/17 11:42:10;;;;;;;3.28;2.17;;;16.60;56.30;;;;;;5052041;28;20222;-63
2024/03/17 11:44:36;;;;;;;1.98;1.88;;;16.60;56.40;;;;;;5053025;28;20188;-62
2024/03/17 11:47:06;;;;;;;2.33;2.08;;;16.60;56.30;;;;;;5053947;28;20625;-62
2024/03/17 11:49:43;;;;;;;2.28;2.08;;;16.60;56.30;;;;;;5053031;28;20229;-63
2024/03/17 11:52:15;;;;;;;1.80;1.70;;;16.60;56.30;;;;;;5053788;28;20182;-63
2024/03/17 11:54:44;;;;;;;2.03;1.77;;;16.60;56.30;;;;;;5053427;28;20175;-62
2024/03/17 11:57:11;;;;;;;2.03;1.85;;;16.60;56.30;;;;;;5053457;28;20179;-63
2024/03/17 11:59:37;;;;;;;2.70;1.80;;;16.60;56.30;;;;;;5053942;28;20187;-62
2024/03/17 12:02:09;;;;;;;1.80;1.70;;;16.60;56.30;;;;;;5052825;28;20211;-63
2024/03/17 12:04:39;;;;;;;3.55;2.00;;;16.60;56.30;;;;;;5052858;28;20262;-62
2024/03/17 12:07:04;;;;;;;2.30;2.10;;;16.60;56.20;;;;;;5053800;28;20206;-62
2024/03/17 12:09:31;;;;;;;2.58;2.22;;;16.60;56.30;;;;;;5034663;28;20206;-62
2024/03/17 12:12:34;;;;;;;1.80;1.70;;;16.60;57.00;;;;;;5053523;28;20186;-63
2024/03/17 12:15:00;;;;;;;1.63;1.50;;;16.60;56.40;;;;;;5012436;28;20187;-62
2024/03/17 12:17:26;;;;;;;2.05;1.92;;;16.60;56.30;;;;;;5052726;28;20194;-62
2024/03/17 12:19:51;;;;;;;2.55;1.98;;;16.60;56.30;;;;;;5053351;28;20168;-62
2024/03/17 12:22:21;;;;;;;1.83;1.60;;;16.60;56.30;;;;;;5053134;28;20211;-63
2024/03/17 12:24:50;;;;;;;2.95;1.90;;;16.60;56.30;;;;;;5053323;28;20175;-62
2024/03/17 12:27:19;;;;;;;2.22;1.90;;;16.60;56.20;;;;;;5053409;28;20179;-62
2024/03/17 12:29:45;;;;;;;2.28;1.75;;;16.60;56.30;;;;;;5052651;28;20179;-62
2024/03/17 12:32:18;;;;;;;2.30;2.10;;;16.60;56.40;;;;;;5053018;28;20191;-63
2024/03/17 12:34:45;;;;;;;1.77;1.65;;;16.50;56.20;;;;;;5036016;28;20171;-62
2024/03/17 12:37:18;;;;;;;1.90;1.80;;;16.50;56.30;;;;;;5050832;28;20179;-63
2024/03/17 12:39:43;;;;;;;2.08;1.75;;;16.60;56.40;;;;;;5052978;28;20298;-63
2024/03/17 12:42:25;;;;;;;2.65;2.08;;;16.50;56.30;;;;;;5052846;28;20306;-63
2024/03/17 12:44:56;;;;;;;2.50;2.30;;;16.50;56.20;;;;;;5052480;28;20182;-62
2024/03/17 12:47:23;;;;;;;2.17;1.98;;;16.60;56.20;;;;;;5051884;28;20195;-62
2024/03/17 12:49:52;;;;;;;2.25;1.80;;;16.60;56.20;;;;;;5053040;28;20183;-62